Rechercher aéroport 
image banner adimage banner adimage banner ad
image banner ad

14CA - Hoag Memorial Hospital Presbyterian

Situé à Newport Beach, United States

ICAO - 14CA, IATA -

Données fournies par Airmate  

Information générale

Coordonnées: N33°37'31" W117°55'51"
Élévation : 94 feet MSL.
Variation magnétique : 14° East
Voir autres Aéroports à California

Données opérationnelles

Special qualification required
Heure actuelle UTC:
Heure actuelle locale:
METAR: KSNA 300053Z 24005KT 10SM FEW055 FEW080 SCT250 27/15 A2984 RMK AO2 SLP103 T02720150
TAF: KSNA 292325Z 3000/3024 22010KT P6SM FEW010 SCT200 FM300200 VRB05KT P6SM FEW200 TEMPO 3009/3011 BKN010 FM301100 VRB04KT 5SM BR BKN009 FM301500 VRB04KT P6SM SCT010 SCT150 FM302000 22008KT P6SM FEW010 SCT150
Voir NOTAMs / SUP AIP / TFR affectant cet aéroport [VIEW]
Fréquences de communication: [VIEW]

Pistes:

Coordonnées de l'aéroport

Adresse: Newport Beach United States

Vue satellite de 14CA